Página principal
METAR-TAF:

METAR-TAF

Aeroportos :

Yap, Yap Island, Micronésia

latitude: 09-29N, longitude: 138-05E, altura: 28 m

Observação actual do tempo

O boletim foi feito há 26 minutos, às 01:50 UTC
Vento 12 kt de nordeste com rajadas de 18 kt
Temperatura 29°C
Humidade 79%
Pressão 1012 hPa
Visibilidade: 19.3 km
Nuvens dispersasa uma altura de 1600 ft
Nuvens fragmentadasa uma altura de 13000 ft
Encobertoa uma altura de 30000 ft

METAR: PTYA 280150Z 04012G18KT 12SM SCT016 BKN130 OVC300 29/25 A2988 RMK SLP120 T02920250

Hora: 12:16 (02:16 UTC)

Previsão

O boletim foi feito há 2 horas e 45 minutos, às 23:31 UTC
Previsão válida de 28 às 00 UTC a 28 às 24 UTC
Vento 13 kt de nordeste
Visibilidade: 10 km
Nuvens dispersasa uma altura de 1600 ft
Nuvens fragmentadasa uma altura de 13000 ft
aguaceiros nas vizinhanças

TAF: PTYA 272331Z 2800/2824 05013KT P6SM VCSH SCT016 BKN130

Observações e previsões do tempo de mais de 4000 aeroportos (mensagens METAR e TAF).

As estações disponíveis são os pontos amarelos e vermelhos sobre o mapa.

Mova o rato sobre o mapa para ver o nome da estação.

Depois clique no ponto para visualizar as observações e previsões meteorológicas.

Para alterar o mapa : clique nos botões verdes com uma cruz preta para aumentar o zoom; no botão verde com uma pitada de zoom; ou nas setas verdes para mapas adjacentes.


METAR-TAF: